Terminal Aerodrome Forecast
Issued by NWS Grand Rapids, MI

Home | Current Version | Previous Version | Text Only | Print | Product List | Glossary On
Versions: 1 2 3 4 5 6 7 8 9 10 11 12 13 14 15 16 17 18 19 20 21 22 23 24 25 26
000
FTUS43 KGRR 220900 AAB
TAFGRR
TAF AMD
KGRR 220916Z 2209/2306 30006KT P6SM FEW035
     FM221400 32005KT P6SM SCT035
     FM221600 28011KT P6SM SKC
     FM222200 25005KT P6SM SKC=

USA.gov is the U.S. government's official web portal to all federal, state and local government web resources and services.